Time;durP1;ratioP1;P1;durP2;ratioP2;P2;SDS_P1;SDS_P2;PMS_P1;PMS_P2;Temp;Humidity;BMP_temperature;BMP_pressure;BME280_temperature;BME280_humidity;BME280_pressure;Samples;Min_cycle;Max_cycle;Signal;HPM_P1;HPM_P2
2021/08/17 00:00:21;;;;;;;913.67;814.47;;;;;;;;;;5011418;28;20419;-78
2021/08/17 00:02:47;;;;;;;913.88;815.58;;;;;;;;;;5004032;28;20543;-79
2021/08/17 00:05:14;;;;;;;910.38;812.10;;;;;;;;;;5017241;28;20728;-78
2021/08/17 00:07:40;;;;;;;899.70;801.72;;;;;;;;;;5008122;28;20096;-79
2021/08/17 00:10:07;;;;;;;902.90;804.78;;;;;;;;;;5007628;28;20061;-79
2021/08/17 00:12:33;;;;;;;895.22;797.67;;;;;;;;;;5007328;28;20021;-79
2021/08/17 00:14:59;;;;;;;906.65;808.60;;;;;;;;;;5009319;28;20026;-78
2021/08/17 00:17:25;;;;;;;896.45;798.63;;;;;;;;;;5007976;28;20032;-77
2021/08/17 00:19:51;;;;;;;894.65;797.17;;;;;;;;;;5009418;28;20037;-79
2021/08/17 00:22:22;;;;;;;897.42;799.92;;;;;;;;;;5007809;28;20029;-78
2021/08/17 00:24:48;;;;;;;909.42;811.30;;;;;;;;;;5007920;28;20103;-78
2021/08/17 00:27:14;;;;;;;901.50;803.47;;;;;;;;;;5009992;28;20826;-78
2021/08/17 00:29:40;;;;;;;904.50;806.35;;;;;;;;;;5009896;28;20038;-78
2021/08/17 00:32:06;;;;;;;904.50;806.35;;;;;;;;;;5017894;28;20061;-77
2021/08/17 00:34:32;;;;;;;894.88;796.95;;;;;;;;;;5004926;28;20110;-78
2021/08/17 00:36:58;;;;;;;900.70;802.63;;;;;;;;;;5011121;28;20109;-78
2021/08/17 00:39:24;;;;;;;888.45;791.03;;;;;;;;;;5012285;28;20444;-78
2021/08/17 00:41:50;;;;;;;894.88;797.05;;;;;;;;;;5008202;28;20108;-79
2021/08/17 00:44:36;;;;;;;882.85;785.42;;;;;;;;;;5010552;28;20403;-77
2021/08/17 00:47:02;;;;;;;895.72;797.40;;;;;;;;;;5004190;28;20022;-78
2021/08/17 00:49:29;;;;;;;890.95;792.95;;;;;;;;;;5006596;28;20125;-77
2021/08/17 00:51:55;;;;;;;888.65;790.70;;;;;;;;;;5008654;28;20034;-78
2021/08/17 00:54:26;;;;;;;889.78;792.22;;;;;;;;;;5008532;28;20041;-78
2021/08/17 00:57:00;;;;;;;886.05;788.38;;;;;;;;;;5014565;28;20033;-77
2021/08/17 00:59:27;;;;;;;887.42;789.60;;;;;;;;;;5006725;28;20040;-79
2021/08/17 01:01:54;;;;;;;882.72;785.53;;;;;;;;;;5008980;28;20041;-78
2021/08/17 01:04:21;;;;;;;888.50;790.97;;;;;;;;;;5008441;28;20034;-78
2021/08/17 01:06:47;;;;;;;889.80;792.05;;;;;;;;;;5006780;28;20076;-78
2021/08/17 01:09:13;;;;;;;887.08;789.55;;;;;;;;;;5006013;28;20061;-78
2021/08/17 01:11:42;;;;;;;884.88;787.53;;;;;;;;;;5008902;28;20018;-78
2021/08/17 01:14:08;;;;;;;877.70;780.40;;;;;;;;;;5008380;28;20029;-77
2021/08/17 01:16:34;;;;;;;883.20;784.83;;;;;;;;;;5009300;28;20034;-79
2021/08/17 01:19:00;;;;;;;884.33;786.97;;;;;;;;;;5010096;28;20030;-78
2021/08/17 01:21:26;;;;;;;877.65;778.85;;;;;;;;;;5010876;28;20053;-78
2021/08/17 01:23:52;;;;;;;882.30;784.28;;;;;;;;;;5009680;28;20092;-77
2021/08/17 01:26:18;;;;;;;877.78;778.15;;;;;;;;;;5008058;28;20022;-79
2021/08/17 01:28:44;;;;;;;879.97;782.15;;;;;;;;;;5004839;28;20073;-78
2021/08/17 01:31:10;;;;;;;871.08;769.75;;;;;;;;;;5008483;28;20025;-78
2021/08/17 01:33:37;;;;;;;882.17;784.03;;;;;;;;;;5004010;28;20460;-79
2021/08/17 01:36:03;;;;;;;877.22;777.88;;;;;;;;;;5007758;28;20025;-77
2021/08/17 01:38:30;;;;;;;878.08;777.22;;;;;;;;;;5007631;28;20374;-78
2021/08/17 01:40:56;;;;;;;873.65;773.83;;;;;;;;;;5007914;28;20085;-78
2021/08/17 01:43:22;;;;;;;883.38;777.22;;;;;;;;;;5007985;28;20029;-79
2021/08/17 01:45:56;;;;;;;878.72;773.88;;;;;;;;;;5004268;28;20042;-79
2021/08/17 01:48:24;;;;;;;875.22;766.55;;;;;;;;;;5022537;28;20542;-78
2021/08/17 01:50:50;;;;;;;878.05;772.30;;;;;;;;;;5006270;28;20037;-78
2021/08/17 01:53:16;;;;;;;876.92;770.28;;;;;;;;;;5008040;28;20026;-79
2021/08/17 01:55:42;;;;;;;876.13;768.55;;;;;;;;;;5000918;28;20125;-78
2021/08/17 01:58:08;;;;;;;879.65;768.70;;;;;;;;;;5007822;28;20018;-78
2021/08/17 02:00:34;;;;;;;877.85;774.03;;;;;;;;;;5009110;28;20025;-79
2021/08/17 02:03:00;;;;;;;877.28;773.60;;;;;;;;;;5016941;28;20631;-78
2021/08/17 02:05:26;;;;;;;879.75;774.72;;;;;;;;;;5005472;28;20025;-78
2021/08/17 02:07:53;;;;;;;873.92;761.58;;;;;;;;;;5007155;28;20046;-78
2021/08/17 02:10:19;;;;;;;876.13;766.85;;;;;;;;;;5006713;28;20061;-78
2021/08/17 02:12:45;;;;;;;874.50;763.50;;;;;;;;;;5017797;28;20375;-78
2021/08/17 02:15:11;;;;;;;876.25;767.53;;;;;;;;;;5006777;28;20021;-78
2021/08/17 02:17:37;;;;;;;878.33;770.00;;;;;;;;;;5005935;28;20420;-78
2021/08/17 02:20:04;;;;;;;875.25;762.72;;;;;;;;;;5007284;28;20017;-79
2021/08/17 02:22:30;;;;;;;882.30;770.88;;;;;;;;;;5007399;28;20030;-78
2021/08/17 02:24:56;;;;;;;875.50;753.97;;;;;;;;;;5003913;28;20084;-77
2021/08/17 02:27:22;;;;;;;875.58;756.20;;;;;;;;;;5007578;28;20044;-78
2021/08/17 02:29:48;;;;;;;876.63;761.30;;;;;;;;;;5006993;28;20310;-77
2021/08/17 02:32:14;;;;;;;879.47;771.40;;;;;;;;;;5008575;28;20110;-79
2021/08/17 02:34:40;;;;;;;876.13;761.33;;;;;;;;;;5005804;28;20041;-78
2021/08/17 02:37:06;;;;;;;875.85;759.22;;;;;;;;;;5007423;28;20034;-78
2021/08/17 02:39:32;;;;;;;877.08;755.50;;;;;;;;;;5006913;28;20022;-78
2021/08/17 02:41:58;;;;;;;870.20;750.40;;;;;;;;;;5008890;28;20477;-78
2021/08/17 02:44:24;;;;;;;876.55;760.05;;;;;;;;;;5002604;28;20776;-78
2021/08/17 02:46:50;;;;;;;873.58;756.63;;;;;;;;;;5006689;28;20022;-78
2021/08/17 02:49:16;;;;;;;876.60;762.25;;;;;;;;;;5007670;28;20041;-77
2021/08/17 02:51:42;;;;;;;871.65;757.15;;;;;;;;;;5018124;28;20364;-79
2021/08/17 02:54:07;;;;;;;877.00;761.20;;;;;;;;;;5005661;28;20026;-78
2021/08/17 02:56:33;;;;;;;872.00;754.72;;;;;;;;;;5013659;28;20030;-78
2021/08/17 02:58:59;;;;;;;877.17;763.65;;;;;;;;;;5002738;28;20536;-78
2021/08/17 03:01:25;;;;;;;875.58;754.65;;;;;;;;;;5011721;28;20072;-78
2021/08/17 03:03:51;;;;;;;874.22;750.92;;;;;;;;;;5006108;28;20041;-78
2021/08/17 03:06:17;;;;;;;874.10;745.40;;;;;;;;;;5012967;28;20034;-78
2021/08/17 03:08:43;;;;;;;877.10;745.47;;;;;;;;;;5007501;28;20038;-78
2021/08/17 03:11:09;;;;;;;873.45;747.97;;;;;;;;;;5006544;28;20069;-77
2021/08/17 03:13:35;;;;;;;876.97;746.65;;;;;;;;;;5006506;28;20120;-79
2021/08/17 03:16:01;;;;;;;897.28;753.97;;;;;;;;;;5006575;28;20033;-78
2021/08/17 03:18:27;;;;;;;870.95;738.92;;;;;;;;;;5007121;28;20034;-78
2021/08/17 03:20:53;;;;;;;870.95;734.75;;;;;;;;;;5007113;28;20061;-78
2021/08/17 03:23:19;;;;;;;877.03;743.78;;;;;;;;;;5005839;28;20037;-78
2021/08/17 03:25:45;;;;;;;869.97;738.42;;;;;;;;;;5008919;28;20044;-78
2021/08/17 03:28:12;;;;;;;868.58;740.67;;;;;;;;;;4999879;28;20030;-78
2021/08/17 03:30:38;;;;;;;873.53;745.85;;;;;;;;;;4993842;28;20026;-77
2021/08/17 03:33:05;;;;;;;870.95;732.17;;;;;;;;;;5005923;28;20030;-79
2021/08/17 03:35:31;;;;;;;868.83;727.60;;;;;;;;;;5006534;28;20053;-78
2021/08/17 03:37:57;;;;;;;866.13;716.85;;;;;;;;;;5000421;28;20040;-77
2021/08/17 03:40:23;;;;;;;872.45;731.35;;;;;;;;;;5005532;28;20030;-78
2021/08/17 03:42:49;;;;;;;869.83;730.78;;;;;;;;;;5009917;28;20030;-77
2021/08/17 03:45:16;;;;;;;877.38;733.88;;;;;;;;;;5009950;28;20088;-78
2021/08/17 03:47:43;;;;;;;873.25;730.45;;;;;;;;;;5004459;28;20030;-78
2021/08/17 03:50:10;;;;;;;870.60;728.33;;;;;;;;;;5010548;28;20046;-78
2021/08/17 03:52:36;;;;;;;873.70;731.17;;;;;;;;;;5009013;28;20018;-78
2021/08/17 03:55:03;;;;;;;869.78;726.53;;;;;;;;;;5020597;28;20026;-77
2021/08/17 03:57:28;;;;;;;868.90;726.20;;;;;;;;;;5007651;28;20161;-77
2021/08/17 03:59:54;;;;;;;870.35;727.85;;;;;;;;;;5008136;28;20121;-77
2021/08/17 04:02:20;;;;;;;869.70;730.15;;;;;;;;;;5021696;28;20022;-78
2021/08/17 04:04:48;;;;;;;868.15;729.25;;;;;;;;;;5009427;28;20025;-77
2021/08/17 04:07:14;;;;;;;873.13;731.97;;;;;;;;;;5009023;28;20053;-78
2021/08/17 04:09:40;;;;;;;873.20;732.38;;;;;;;;;;5008408;28;20042;-80
2021/08/17 04:12:06;;;;;;;1114.03;766.42;;;;;;;;;;5010502;28;20032;-78
2021/08/17 04:14:32;;;;;;;871.33;727.08;;;;;;;;;;5026542;28;20083;-76
2021/08/17 04:16:58;;;;;;;871.20;730.80;;;;;;;;;;5018268;28;20037;-78
2021/08/17 04:19:25;;;;;;;871.50;731.90;;;;;;;;;;5009677;28;20061;-78
2021/08/17 04:21:51;;;;;;;875.58;739.33;;;;;;;;;;5007709;28;20064;-77
2021/08/17 04:24:17;;;;;;;870.72;727.30;;;;;;;;;;5010738;28;20127;-78
2021/08/17 04:26:43;;;;;;;873.95;738.60;;;;;;;;;;5009846;28;20102;-78
2021/08/17 04:29:09;;;;;;;877.03;749.60;;;;;;;;;;5004299;28;20034;-77
2021/08/17 04:31:35;;;;;;;880.30;748.42;;;;;;;;;;5006897;28;20120;-78
2021/08/17 04:34:01;;;;;;;871.33;739.22;;;;;;;;;;5002176;28;20480;-77
2021/08/17 04:36:27;;;;;;;878.88;746.45;;;;;;;;;;5006498;28;20023;-77
2021/08/17 04:38:53;;;;;;;874.10;743.45;;;;;;;;;;5024589;28;20135;-78
2021/08/17 04:41:19;;;;;;;882.20;758.55;;;;;;;;;;5008787;28;20026;-79
2021/08/17 04:43:46;;;;;;;875.90;757.20;;;;;;;;;;5021392;28;20553;-78
2021/08/17 04:46:12;;;;;;;873.80;745.42;;;;;;;;;;5012192;28;20062;-78
2021/08/17 04:48:38;;;;;;;874.25;751.53;;;;;;;;;;5006247;28;20081;-78
2021/08/17 04:51:04;;;;;;;878.63;753.75;;;;;;;;;;5002854;28;20037;-79
2021/08/17 04:53:30;;;;;;;875.75;749.80;;;;;;;;;;5008800;28;20597;-79
2021/08/17 04:55:56;;;;;;;871.45;748.92;;;;;;;;;;5008004;28;20033;-79
2021/08/17 04:58:22;;;;;;;874.85;753.40;;;;;;;;;;5025384;28;20088;-79
2021/08/17 05:00:48;;;;;;;874.00;752.58;;;;;;;;;;5011962;28;20046;-79
2021/08/17 05:03:14;;;;;;;875.88;753.78;;;;;;;;;;5005325;28;20053;-80
2021/08/17 05:05:40;;;;;;;878.28;755.55;;;;;;;;;;5006663;28;20026;-79
2021/08/17 05:08:07;;;;;;;875.00;756.22;;;;;;;;;;5000892;28;20056;-80
2021/08/17 05:10:33;;;;;;;880.03;764.00;;;;;;;;;;5007998;28;20103;-78
2021/08/17 05:13:03;;;;;;;875.65;765.47;;;;;;;;;;5023471;28;20046;-79
2021/08/17 05:15:30;;;;;;;874.72;755.85;;;;;;;;;;5024198;28;20029;-78
2021/08/17 05:17:56;;;;;;;877.22;758.63;;;;;;;;;;5007361;28;20022;-80
2021/08/17 05:20:22;;;;;;;882.90;772.15;;;;;;;;;;5004967;28;20022;-79
2021/08/17 05:22:48;;;;;;;876.47;760.53;;;;;;;;;;5005163;28;20053;-80
2021/08/17 05:25:14;;;;;;;875.95;762.05;;;;;;;;;;5011680;28;20125;-78
2021/08/17 05:27:41;;;;;;;873.35;752.95;;;;;;;;;;5006789;28;20022;-79
2021/08/17 05:30:07;;;;;;;881.70;765.95;;;;;;;;;;5005275;28;20088;-79
2021/08/17 05:32:33;;;;;;;875.55;756.60;;;;;;;;;;5005339;28;20643;-80
2021/08/17 05:34:59;;;;;;;877.58;765.15;;;;;;;;;;5006934;28;20117;-79
2021/08/17 05:37:25;;;;;;;877.15;760.83;;;;;;;;;;5022755;28;20124;-80
2021/08/17 05:39:51;;;;;;;879.28;762.83;;;;;;;;;;5005413;28;20029;-79
2021/08/17 05:42:17;;;;;;;877.78;762.45;;;;;;;;;;5005754;28;20018;-79
2021/08/17 05:44:44;;;;;;;876.95;763.85;;;;;;;;;;5009443;28;20030;-79
2021/08/17 05:47:10;;;;;;;879.13;766.28;;;;;;;;;;5009385;28;20116;-79
2021/08/17 05:49:37;;;;;;;877.40;766.60;;;;;;;;;;5007499;28;20077;-80
2021/08/17 05:52:07;;;;;;;879.15;767.33;;;;;;;;;;5018027;28;20026;-79
2021/08/17 05:54:33;;;;;;;879.28;770.25;;;;;;;;;;5008502;28;20053;-79
2021/08/17 05:56:59;;;;;;;880.05;770.85;;;;;;;;;;5007582;28;20092;-79
2021/08/17 05:59:28;;;;;;;878.22;774.60;;;;;;;;;;5007420;28;20117;-79
2021/08/17 06:01:55;;;;;;;885.13;779.70;;;;;;;;;;5022966;28;20029;-79
2021/08/17 06:04:21;;;;;;;876.22;769.22;;;;;;;;;;5005153;28;20068;-79
2021/08/17 06:06:47;;;;;;;880.13;771.47;;;;;;;;;;4999633;28;20206;-79
2021/08/17 06:09:14;;;;;;;877.65;770.28;;;;;;;;;;5005823;28;20038;-80
2021/08/17 06:11:40;;;;;;;873.67;766.85;;;;;;;;;;5010565;28;20306;-79
2021/08/17 06:14:06;;;;;;;873.05;768.47;;;;;;;;;;5005353;28;20037;-79
2021/08/17 06:16:33;;;;;;;879.78;775.20;;;;;;;;;;5014258;28;20033;-78
2021/08/17 06:18:59;;;;;;;881.47;774.60;;;;;;;;;;5001721;28;20043;-78
2021/08/17 06:21:25;;;;;;;877.47;772.90;;;;;;;;;;5007650;28;20030;-79
2021/08/17 06:23:51;;;;;;;880.60;782.55;;;;;;;;;;5005009;28;20026;-79
2021/08/17 06:26:17;;;;;;;883.67;785.63;;;;;;;;;;5007833;28;20033;-79
2021/08/17 06:28:44;;;;;;;880.72;782.03;;;;;;;;;;5005786;28;20046;-81
2021/08/17 06:31:12;;;;;;;884.25;784.78;;;;;;;;;;5008970;28;20040;-80
2021/08/17 06:33:38;;;;;;;880.15;782.20;;;;;;;;;;5006412;28;20176;-78
2021/08/17 06:36:04;;;;;;;892.75;794.55;;;;;;;;;;5023641;28;20508;-77
2021/08/17 06:38:30;;;;;;;892.03;793.95;;;;;;;;;;5006724;28;20014;-77
2021/08/17 06:40:56;;;;;;;892.20;794.00;;;;;;;;;;5012476;28;20029;-78
2021/08/17 06:43:23;;;;;;;897.85;799.50;;;;;;;;;;5005897;28;20018;-78
2021/08/17 06:45:49;;;;;;;899.60;801.20;;;;;;;;;;5007214;28;20026;-77
2021/08/17 06:48:15;;;;;;;899.38;801.38;;;;;;;;;;5007129;28;20080;-78
2021/08/17 06:50:41;;;;;;;914.40;815.60;;;;;;;;;;5007061;28;20416;-78
2021/08/17 06:53:07;;;;;;;908.60;810.13;;;;;;;;;;5008553;28;20030;-78
2021/08/17 06:55:33;;;;;;;917.83;818.95;;;;;;;;;;4999543;28;20041;-78
2021/08/17 06:57:59;;;;;;;932.90;833.75;;;;;;;;;;5011679;28;20049;-78
2021/08/17 07:00:26;;;;;;;939.53;839.88;;;;;;;;;;5003486;28;20739;-78
2021/08/17 07:02:52;;;;;;;931.85;832.63;;;;;;;;;;5004471;28;20491;-78
2021/08/17 07:05:18;;;;;;;938.63;838.88;;;;;;;;;;5008221;28;20034;-79
2021/08/17 07:07:44;;;;;;;938.97;839.40;;;;;;;;;;5017988;28;20060;-78
2021/08/17 07:10:10;;;;;;;945.72;845.95;;;;;;;;;;5004975;28;20046;-77
2021/08/17 07:12:36;;;;;;;940.92;841.78;;;;;;;;;;5007381;28;20026;-78
2021/08/17 07:15:02;;;;;;;943.72;843.95;;;;;;;;;;5006592;28;20030;-78
2021/08/17 07:17:28;;;;;;;950.20;849.72;;;;;;;;;;5006111;28;20038;-79
2021/08/17 07:19:54;;;;;;;952.28;852.70;;;;;;;;;;5027161;28;20014;-78
2021/08/17 07:22:20;;;;;;;953.90;854.28;;;;;;;;;;5007129;28;20267;-77
2021/08/17 07:24:46;;;;;;;963.42;863.50;;;;;;;;;;5009181;28;20030;-79
2021/08/17 07:27:12;;;;;;;967.83;867.50;;;;;;;;;;5015118;28;20037;-78
2021/08/17 07:29:38;;;;;;;969.53;869.15;;;;;;;;;;4997289;28;20120;-79
2021/08/17 07:32:04;;;;;;;976.50;874.75;;;;;;;;;;5005270;28;20026;-79
2021/08/17 07:34:30;;;;;;;992.13;890.90;;;;;;;;;;5013260;28;20504;-78
2021/08/17 07:36:56;;;;;;;994.70;893.20;;;;;;;;;;5012045;28;20029;-79
2021/08/17 07:39:22;;;;;;;994.08;892.85;;;;;;;;;;5012130;28;20026;-78
2021/08/17 07:41:50;;;;;;;993.80;892.90;;;;;;;;;;5008745;28;20034;-80
2021/08/17 07:44:16;;;;;;;1002.58;901.38;;;;;;;;;;5010093;28;20041;-79
2021/08/17 07:46:42;;;;;;;1003.78;902.28;;;;;;;;;;5018850;28;20029;-77
2021/08/17 07:49:08;;;;;;;998.63;897.60;;;;;;;;;;5022655;28;20041;-77
2021/08/17 07:51:34;;;;;;;999.13;898.25;;;;;;;;;;5008332;28;20037;-78
2021/08/17 07:54:00;;;;;;;1012.20;910.33;;;;;;;;;;4995367;28;20037;-79
2021/08/17 07:56:26;;;;;;;1007.20;905.60;;;;;;;;;;5008357;28;20021;-78
2021/08/17 07:58:52;;;;;;;998.78;897.78;;;;;;;;;;5009300;28;20058;-79
2021/08/17 08:01:18;;;;;;;1001.70;900.53;;;;;;;;;;5010539;28;20345;-79
2021/08/17 08:03:44;;;;;;;996.70;895.42;;;;;;;;;;5012654;28;20160;-78
2021/08/17 08:06:12;;;;;;;986.00;885.50;;;;;;;;;;5011142;28;20022;-78
2021/08/17 08:08:41;;;;;;;984.50;884.35;;;;;;;;;;5012969;28;20042;-77
2021/08/17 08:11:07;;;;;;;995.30;894.10;;;;;;;;;;5008900;28;20026;-78
2021/08/17 08:13:33;;;;;;;997.95;897.15;;;;;;;;;;5009220;28;20041;-78
2021/08/17 08:15:59;;;;;;;990.38;889.63;;;;;;;;;;5015228;28;20057;-77
2021/08/17 08:18:25;;;;;;;1002.60;901.45;;;;;;;;;;5004233;28;20053;-76
2021/08/17 08:20:51;;;;;;;1004.17;903.00;;;;;;;;;;5003052;28;20030;-77
2021/08/17 08:23:17;;;;;;;1006.88;905.28;;;;;;;;;;5008647;28;20513;-71
2021/08/17 08:25:43;;;;;;;1009.55;907.50;;;;;;;;;;5004836;28;20114;-71
2021/08/17 08:28:09;;;;;;;1005.90;903.53;;;;;;;;;;5005017;28;20421;-72
2021/08/17 08:30:35;;;;;;;1005.85;904.28;;;;;;;;;;5008876;28;20038;-72
2021/08/17 08:33:02;;;;;;;1001.47;900.30;;;;;;;;;;5009047;28;20036;-72
2021/08/17 08:35:28;;;;;;;1007.00;905.13;;;;;;;;;;5007058;28;20026;-72
2021/08/17 08:37:55;;;;;;;1004.70;903.40;;;;;;;;;;5009628;28;20022;-72
2021/08/17 08:40:23;;;;;;;1010.55;908.95;;;;;;;;;;5007657;28;20021;-73
2021/08/17 08:42:49;;;;;;;1010.17;908.72;;;;;;;;;;5007143;28;20041;-72
2021/08/17 08:45:16;;;;;;;1008.50;907.33;;;;;;;;;;5009732;28;20125;-71
2021/08/17 08:47:42;;;;;;;1013.65;912.00;;;;;;;;;;5008390;28;20037;-72
2021/08/17 08:50:08;;;;;;;1008.17;906.72;;;;;;;;;;5007090;28;20053;-77
2021/08/17 08:52:35;;;;;;;1405.25;818.47;;;;;;;;;;5005311;28;20108;-76
2021/08/17 08:55:02;;;;;;;1016.92;914.53;;;;;;;;;;5003371;28;20120;-77
2021/08/17 08:57:28;;;;;;;1008.90;908.20;;;;;;;;;;5005821;28;20022;-76
2021/08/17 08:59:54;;;;;;;1006.85;906.13;;;;;;;;;;5005954;28;20026;-77
2021/08/17 09:02:21;;;;;;;1010.95;910.45;;;;;;;;;;5000459;28;20033;-77
2021/08/17 09:04:51;;;;;;;1008.40;908.00;;;;;;;;;;5002947;28;20116;-78
2021/08/17 09:07:32;;;;;;;1019.65;918.03;;;;;;;;;;5002787;28;20033;-77
2021/08/17 09:10:03;;;;;;;1010.47;909.10;;;;;;;;;;5004717;28;20041;-78
2021/08/17 09:12:40;;;;;;;1002.75;902.55;;;;;;;;;;5005857;28;20036;-73
2021/08/17 09:15:08;;;;;;;1005.40;904.90;;;;;;;;;;5007817;28;20646;-78
2021/08/17 09:17:34;;;;;;;1010.90;909.63;;;;;;;;;;5008352;28;20109;-76
2021/08/17 09:20:00;;;;;;;1007.13;906.20;;;;;;;;;;4999513;28;20117;-77
2021/08/17 09:22:27;;;;;;;1012.20;911.15;;;;;;;;;;5008565;28;20036;-75
2021/08/17 09:24:55;;;;;;;1007.85;907.33;;;;;;;;;;5007510;28;20087;-77
2021/08/17 09:27:24;;;;;;;1016.72;915.42;;;;;;;;;;4997910;28;20022;-79
2021/08/17 09:29:53;;;;;;;1021.85;920.38;;;;;;;;;;4996149;28;20552;-75
2021/08/17 09:32:26;;;;;;;1019.67;918.25;;;;;;;;;;5003819;28;20251;-82
2021/08/17 09:35:02;;;;;;;1030.72;929.17;;;;;;;;;;5003270;28;20184;-82
2021/08/17 09:37:39;;;;;;;1041.82;938.47;;;;;;;;;;5003611;28;20700;-86
2021/08/17 09:40:13;;;;;;;1034.97;933.17;;;;;;;;;;5020378;28;20030;-82
2021/08/17 09:45:34;;;;;;;1036.47;934.47;;;;;;;;;;5007099;28;20040;-81
2021/08/17 09:48:01;;;;;;;1034.72;932.95;;;;;;;;;;5005411;28;20352;-82
2021/08/17 09:50:30;;;;;;;1039.93;938.13;;;;;;;;;;5004223;28;20037;-83
2021/08/17 09:53:34;;;;;;;1040.75;939.13;;;;;;;;;;5014531;28;20508;-84
2021/08/17 09:56:01;;;;;;;1030.55;929.25;;;;;;;;;;5016720;28;20058;-80
2021/08/17 09:58:31;;;;;;;1034.18;933.10;;;;;;;;;;5006363;28;20080;-89
2021/08/17 10:00:58;;;;;;;1039.68;938.25;;;;;;;;;;5009837;28;20069;-73
2021/08/17 10:03:25;;;;;;;1042.95;941.05;;;;;;;;;;5004216;28;20026;-79
2021/08/17 10:05:51;;;;;;;1047.03;944.53;;;;;;;;;;5002353;28;20368;-80
2021/08/17 10:08:18;;;;;;;1042.00;939.80;;;;;;;;;;5003567;28;20652;-81
2021/08/17 10:10:57;;;;;;;1032.38;930.80;;;;;;;;;;5093410;27;20447;-78
2021/08/17 10:13:24;;;;;;;1034.43;933.28;;;;;;;;;;5070895;28;20426;-76
2021/08/17 10:15:51;;;;;;;1031.07;929.88;;;;;;;;;;5072592;28;20835;-78
2021/08/17 10:18:18;;;;;;;1032.15;930.90;;;;;;;;;;5058712;28;20030;-78
2021/08/17 10:20:46;;;;;;;1034.22;932.72;;;;;;;;;;5073076;28;20025;-80
2021/08/17 10:23:20;;;;;;;1039.22;937.35;;;;;;;;;;5081673;28;20039;-79
2021/08/17 10:25:51;;;;;;;1031.03;930.00;;;;;;;;;;5084145;28;20082;-78
2021/08/17 10:28:24;;;;;;;1035.97;934.63;;;;;;;;;;5069730;28;20051;-79
2021/08/17 10:30:50;;;;;;;1029.65;928.65;;;;;;;;;;5069479;28;20041;-77
2021/08/17 10:33:34;;;;;;;1039.50;937.83;;;;;;;;;;5069130;28;20180;-78
2021/08/17 10:36:00;;;;;;;1019.95;919.38;;;;;;;;;;5068143;28;20468;-77
2021/08/17 10:38:26;;;;;;;1027.70;926.70;;;;;;;;;;5068289;28;20025;-77
2021/08/17 10:40:52;;;;;;;1030.05;929.05;;;;;;;;;;5069797;28;20061;-78
2021/08/17 10:43:18;;;;;;;1027.97;926.90;;;;;;;;;;5068599;28;20031;-79
2021/08/17 10:46:01;;;;;;;1039.38;937.30;;;;;;;;;;5068287;28;20107;-81
2021/08/17 10:48:52;;;;;;;1034.93;933.60;;;;;;;;;;5065042;28;20033;-78
2021/08/17 10:51:18;;;;;;;1029.55;928.47;;;;;;;;;;5048697;28;20029;-77
2021/08/17 10:53:44;;;;;;;1033.93;932.83;;;;;;;;;;5067793;28;20098;-79
2021/08/17 10:56:14;;;;;;;1031.13;930.33;;;;;;;;;;5067608;28;20021;-78
2021/08/17 10:58:45;;;;;;;1028.72;927.95;;;;;;;;;;5089790;28;20024;-78
2021/08/17 11:01:11;;;;;;;1034.75;933.75;;;;;;;;;;5088369;28;20044;-78
2021/08/17 11:03:38;;;;;;;1034.85;933.88;;;;;;;;;;5067706;28;20063;-79
2021/08/17 11:06:04;;;;;;;1034.82;933.45;;;;;;;;;;5077922;28;20471;-80
2021/08/17 11:08:41;;;;;;;1038.65;936.97;;;;;;;;;;5070695;28;20403;-79
2021/08/17 11:11:24;;;;;;;1035.63;934.25;;;;;;;;;;5066898;28;20028;-79
2021/08/17 11:14:23;;;;;;;1028.85;927.83;;;;;;;;;;5069260;28;20059;-78
2021/08/17 11:16:51;;;;;;;1026.32;925.38;;;;;;;;;;5055066;28;20037;-79
2021/08/17 11:19:18;;;;;;;1023.60;922.65;;;;;;;;;;5067406;28;20036;-79
2021/08/17 11:21:49;;;;;;;1030.85;929.80;;;;;;;;;;5054564;28;20033;-80
2021/08/17 11:24:15;;;;;;;1027.90;926.88;;;;;;;;;;5074016;28;20636;-78
2021/08/17 11:26:42;;;;;;;1036.90;935.50;;;;;;;;;;5071391;28;20059;-78
2021/08/17 11:29:08;;;;;;;1030.65;929.60;;;;;;;;;;5054975;28;20083;-79
2021/08/17 11:31:47;;;;;;;1040.80;939.25;;;;;;;;;;5064288;28;20021;-79
2021/08/17 11:34:20;;;;;;;1036.57;935.33;;;;;;;;;;5060623;28;20100;-78
2021/08/17 11:36:53;;;;;;;1034.55;933.28;;;;;;;;;;5051446;28;20488;-78
2021/08/17 11:39:23;;;;;;;1045.40;943.63;;;;;;;;;;5070266;28;20029;-79
2021/08/17 11:41:49;;;;;;;;;;;;;;;;;;5052342;28;20056;-79
2021/08/17 11:44:16;;;;;;;1028.22;926.97;;;;;;;;;;5072838;28;20395;-78
2021/08/17 11:46:42;;;;;;;1038.18;936.67;;;;;;;;;;5072125;28;20021;-78
2021/08/17 11:49:20;;;;;;;1041.05;939.28;;;;;;;;;;5064800;28;20025;-76
2021/08/17 11:51:46;;;;;;;1028.78;927.78;;;;;;;;;;5051734;28;20028;-78
2021/08/17 11:54:14;;;;;;;1038.18;936.53;;;;;;;;;;5064554;28;20074;-79
2021/08/17 11:56:40;;;;;;;1036.65;935.33;;;;;;;;;;5054613;28;20664;-78
2021/08/17 11:59:06;;;;;;;1035.72;934.60;;;;;;;;;;5061495;28;20064;-79
2021/08/17 12:01:32;;;;;;;1040.22;938.63;;;;;;;;;;5054347;28;20353;-79
2021/08/17 12:04:08;;;;;;;1039.40;937.50;;;;;;;;;;5069836;28;20021;-79
2021/08/17 12:06:34;;;;;;;1035.32;933.90;;;;;;;;;;5071724;28;20036;-80
2021/08/17 12:09:18;;;;;;;1028.72;927.72;;;;;;;;;;5049598;28;20041;-78
2021/08/17 12:11:58;;;;;;;1033.10;931.70;;;;;;;;;;5062537;28;20468;-79
2021/08/17 12:14:24;;;;;;;1027.45;926.55;;;;;;;;;;5064644;28;20401;-80
2021/08/17 12:16:57;;;;;;;1038.15;936.50;;;;;;;;;;5045548;28;20750;-82
2021/08/17 12:19:23;;;;;;;1024.47;923.80;;;;;;;;;;5055079;28;20464;-80
2021/08/17 12:21:49;;;;;;;1037.70;935.95;;;;;;;;;;5051785;28;20090;-79
2021/08/17 12:24:22;;;;;;;1034.82;933.22;;;;;;;;;;5053846;28;20063;-81
2021/08/17 12:27:01;;;;;;;1038.18;936.60;;;;;;;;;;5074305;28;20035;-79
2021/08/17 12:29:36;;;;;;;1033.10;931.83;;;;;;;;;;5073875;28;20032;-82
2021/08/17 12:32:14;;;;;;;1032.85;931.63;;;;;;;;;;5072690;28;20098;-81
2021/08/17 12:34:44;;;;;;;1038.85;937.25;;;;;;;;;;5057871;28;20025;-81
2021/08/17 12:37:31;;;;;;;1038.75;937.13;;;;;;;;;;5072941;28;20024;-82
2021/08/17 12:40:00;;;;;;;1035.38;933.65;;;;;;;;;;5070133;28;20025;-83
2021/08/17 12:42:27;;;;;;;1038.78;937.00;;;;;;;;;;5052772;28;20051;-82
2021/08/17 12:44:53;;;;;;;1041.18;939.22;;;;;;;;;;5052637;28;20563;-82
2021/08/17 12:47:26;;;;;;;1038.57;936.88;;;;;;;;;;5052756;28;20552;-85
2021/08/17 12:49:52;;;;;;;1040.90;939.22;;;;;;;;;;5050032;28;20020;-80
2021/08/17 12:52:40;;;;;;;1045.05;943.13;;;;;;;;;;5049387;28;20028;-83
2021/08/17 12:55:08;;;;;;;1039.38;937.42;;;;;;;;;;5052115;28;20033;-82
2021/08/17 12:57:55;;;;;;;1038.63;937.03;;;;;;;;;;5066823;28;20067;-81
2021/08/17 13:00:32;;;;;;;1032.55;931.08;;;;;;;;;;5055652;28;20040;-81
2021/08/17 13:02:59;;;;;;;1031.15;929.42;;;;;;;;;;5055830;28;20159;-81
2021/08/17 13:05:25;;;;;;;1027.18;925.75;;;;;;;;;;5052318;28;20025;-81
2021/08/17 13:07:52;;;;;;;1025.72;923.88;;;;;;;;;;5051697;28;20037;-73
2021/08/17 13:10:18;;;;;;;1022.60;921.33;;;;;;;;;;5052632;28;20047;-87
2021/08/17 13:12:45;;;;;;;1019.58;918.13;;;;;;;;;;5044930;28;20020;-83
2021/08/17 13:15:11;;;;;;;1011.28;910.22;;;;;;;;;;5061227;28;20017;-82
2021/08/17 13:17:38;;;;;;;1013.40;912.13;;;;;;;;;;5057953;28;20119;-80
2021/08/17 13:20:07;;;;;;;998.75;898.30;;;;;;;;;;5057319;28;20860;-81
2021/08/17 13:22:34;;;;;;;995.63;895.25;;;;;;;;;;5063071;28;20115;-81
2021/08/17 13:25:00;;;;;;;997.00;894.38;;;;;;;;;;5054583;28;20136;-83
2021/08/17 13:27:26;;;;;;;990.08;889.72;;;;;;;;;;5073538;28;20028;-81
2021/08/17 13:29:52;;;;;;;989.95;889.75;;;;;;;;;;5059794;28;20033;-83
2021/08/17 13:32:19;;;;;;;990.63;890.38;;;;;;;;;;5072338;28;20021;-81
2021/08/17 13:34:45;;;;;;;997.13;896.58;;;;;;;;;;5054889;28;20080;-83
2021/08/17 13:37:11;;;;;;;1000.95;900.15;;;;;;;;;;5060331;28;20013;-82
2021/08/17 13:39:37;;;;;;;996.60;896.20;;;;;;;;;;5052189;28;20040;-82
2021/08/17 13:42:04;;;;;;;1003.38;902.67;;;;;;;;;;5076161;28;20028;-83
2021/08/17 13:44:32;;;;;;;1003.78;902.72;;;;;;;;;;5051878;28;20029;-82
2021/08/17 13:46:59;;;;;;;1003.28;902.75;;;;;;;;;;5065049;28;20028;-84
2021/08/17 13:49:25;;;;;;;1004.90;903.92;;;;;;;;;;5059689;28;20040;-84
2021/08/17 13:52:00;;;;;;;1000.47;900.00;;;;;;;;;;5051758;28;20109;-81
2021/08/17 13:54:26;;;;;;;986.97;887.15;;;;;;;;;;5057564;28;20094;-81